createdAt,value
2022-12-31T00:01:16.600Z,10.05
2022-12-31T00:06:21.421Z,10.13
2022-12-31T00:11:23.500Z,10.25
2022-12-31T00:16:26.526Z,10.34
2022-12-31T00:21:29.327Z,10.42
2022-12-31T00:26:32.389Z,10.49
2022-12-31T00:31:35.326Z,10.55
2022-12-31T00:36:37.620Z,10.59
2022-12-31T00:41:39.317Z,10.68
2022-12-31T00:51:41.139Z,10.86
2022-12-31T00:56:42.514Z,10.92
2022-12-31T01:01:44.072Z,11.02
2022-12-31T01:06:45.594Z,11.07
2022-12-31T01:11:49.561Z,11.16
2022-12-31T01:16:52.075Z,11.24
2022-12-31T01:21:53.895Z,11.28
2022-12-31T01:26:57.732Z,11.35
2022-12-31T01:32:00.526Z,11.43
2022-12-31T01:37:01.892Z,11.48
2022-12-31T01:42:03.263Z,11.55
2022-12-31T01:47:05.812Z,11.63
2022-12-31T01:52:18.136Z,11.65
2022-12-31T01:57:19.864Z,11.68
2022-12-31T02:02:21.619Z,11.75
2022-12-31T02:07:23.559Z,11.80
2022-12-31T02:12:24.927Z,11.88
2022-12-31T02:17:33.966Z,11.92
2022-12-31T02:22:41.561Z,11.95
2022-12-31T02:28:01.868Z,11.94
2022-12-31T02:33:16.711Z,12.02
2022-12-31T02:38:20.887Z,12.10
2022-12-31T02:43:22.241Z,12.13
2022-12-31T02:48:34.439Z,12.12
2022-12-31T02:53:42.010Z,12.15
2022-12-31T02:59:05.112Z,12.14
2022-12-31T03:04:24.960Z,12.13
2022-12-31T03:09:26.310Z,12.14
2022-12-31T03:14:27.658Z,12.16
2022-12-31T03:20:01.305Z,12.20
2022-12-31T03:25:21.262Z,12.24
2022-12-31T03:30:23.358Z,12.21
2022-12-31T03:35:25.734Z,12.23
2022-12-31T03:40:28.390Z,12.27
2022-12-31T03:45:30.582Z,12.31
2022-12-31T03:50:31.978Z,12.37
2022-12-31T03:55:33.305Z,12.33
2022-12-31T04:00:34.791Z,12.37
2022-12-31T04:05:36.158Z,12.41
2022-12-31T04:10:37.537Z,12.45
2022-12-31T04:15:39.001Z,12.47
2022-12-31T04:20:40.421Z,12.50
2022-12-31T04:25:41.791Z,12.51
2022-12-31T04:30:45.699Z,12.53
2022-12-31T04:35:47.089Z,12.58
2022-12-31T04:41:06.860Z,12.64
2022-12-31T04:46:08.279Z,12.70
2022-12-31T04:51:10.051Z,12.74
2022-12-31T04:56:12.382Z,12.74
2022-12-31T05:01:14.194Z,12.84
2022-12-31T05:06:17.090Z,12.92
2022-12-31T05:11:18.439Z,13.00
2022-12-31T05:16:19.943Z,13.06
2022-12-31T05:21:22.107Z,13.11
2022-12-31T05:26:23.607Z,13.16
2022-12-31T05:31:24.951Z,13.18
2022-12-31T05:36:26.361Z,13.05
2022-12-31T05:41:27.699Z,12.96
2022-12-31T05:46:29.162Z,12.93
2022-12-31T05:51:30.688Z,12.86
2022-12-31T05:56:32.040Z,12.80
2022-12-31T06:01:33.581Z,12.78
2022-12-31T06:06:35.035Z,12.84
2022-12-31T06:11:36.541Z,12.91
2022-12-31T06:16:39.087Z,12.95
2022-12-31T06:21:40.480Z,12.96
2022-12-31T06:26:41.949Z,12.91
2022-12-31T06:31:43.838Z,12.87
2022-12-31T06:36:45.227Z,12.89
2022-12-31T06:41:46.578Z,12.90
2022-12-31T06:46:48.648Z,12.94
2022-12-31T06:51:50.704Z,12.95
2022-12-31T06:56:52.161Z,12.90
2022-12-31T07:02:08.969Z,12.88
2022-12-31T07:07:32.825Z,12.95
2022-12-31T07:12:53.252Z,12.99
2022-12-31T07:18:02.454Z,12.97
2022-12-31T07:23:03.951Z,13.02
2022-12-31T07:28:18.588Z,13.07
2022-12-31T07:33:38.811Z,13.16
2022-12-31T07:38:40.210Z,13.31
2022-12-31T07:43:54.041Z,13.57
2022-12-31T07:48:55.548Z,13.79
2022-12-31T07:53:56.958Z,13.97
2022-12-31T07:59:02.483Z,14.10
2022-12-31T08:04:06.983Z,14.22
2022-12-31T08:09:18.817Z,14.29
2022-12-31T08:14:20.228Z,14.38
2022-12-31T08:19:26.444Z,14.45
2022-12-31T08:24:42.936Z,14.53
2022-12-31T08:30:03.240Z,14.63
2022-12-31T08:35:13.681Z,14.74
2022-12-31T08:40:21.333Z,14.77
2022-12-31T08:45:35.802Z,14.81
2022-12-31T08:50:37.360Z,14.87
2022-12-31T08:55:39.460Z,14.90
2022-12-31T09:00:41.642Z,15.01
2022-12-31T09:05:52.990Z,15.19
2022-12-31T09:11:03.670Z,15.33
2022-12-31T09:16:14.181Z,15.43
2022-12-31T09:21:16.851Z,15.51
2022-12-31T09:26:24.083Z,15.56
2022-12-31T09:31:36.268Z,15.57
2022-12-31T09:36:46.284Z,15.57
2022-12-31T09:42:06.513Z,15.59
2022-12-31T09:47:10.981Z,15.70
2022-12-31T09:52:30.638Z,15.66
2022-12-31T09:57:38.056Z,15.60
2022-12-31T10:02:48.095Z,15.61
2022-12-31T10:07:58.717Z,15.62
2022-12-31T10:13:00.189Z,15.65
2022-12-31T10:18:18.136Z,15.69
2022-12-31T10:23:32.332Z,15.75
2022-12-31T10:28:38.117Z,15.79
2022-12-31T10:33:44.779Z,15.77
2022-12-31T10:38:46.367Z,15.75
2022-12-31T10:43:53.574Z,15.76
2022-12-31T10:49:16.509Z,15.81
2022-12-31T10:54:36.554Z,15.86
2022-12-31T10:59:43.912Z,15.88
2022-12-31T11:05:04.190Z,15.91
2022-12-31T11:10:21.120Z,15.92
2022-12-31T11:15:22.514Z,16.00
2022-12-31T11:20:38.948Z,16.06
2022-12-31T11:25:59.171Z,16.12
2022-12-31T11:31:07.001Z,16.14
2022-12-31T11:36:27.314Z,16.20
2022-12-31T11:41:48.901Z,16.21
2022-12-31T11:46:58.471Z,16.27
2022-12-31T11:52:12.013Z,16.33
2022-12-31T11:57:19.438Z,16.40
2022-12-31T12:02:24.936Z,16.44
2022-12-31T12:07:27.019Z,16.50
2022-12-31T12:12:39.180Z,16.51
2022-12-31T12:17:41.105Z,16.61
2022-12-31T12:22:50.292Z,16.74
2022-12-31T12:27:52.051Z,16.89
2022-12-31T12:32:55.028Z,16.98
2022-12-31T12:38:06.673Z,17.00
2022-12-31T12:43:21.426Z,17.00
2022-12-31T12:48:43.741Z,17.08
2022-12-31T12:53:55.230Z,17.06
2022-12-31T12:59:18.657Z,16.99
2022-12-31T13:04:35.261Z,16.93
2022-12-31T13:09:46.921Z,16.83
2022-12-31T13:15:11.225Z,16.73
2022-12-31T13:20:23.320Z,16.71
2022-12-31T13:25:43.029Z,16.71
2022-12-31T13:30:46.829Z,16.65
2022-12-31T13:35:51.193Z,16.63
2022-12-31T13:40:57.034Z,16.61
2022-12-31T13:46:04.588Z,16.59
2022-12-31T13:51:11.503Z,16.58
2022-12-31T13:56:14.829Z,16.56
2022-12-31T14:01:16.364Z,16.56
2022-12-31T14:06:33.747Z,16.51
2022-12-31T14:11:48.501Z,16.43
2022-12-31T14:16:57.696Z,16.34
2022-12-31T14:22:02.051Z,16.26
2022-12-31T14:27:07.168Z,16.26
2022-12-31T14:32:31.333Z,16.21
2022-12-31T14:37:51.558Z,16.09
2022-12-31T14:43:00.856Z,15.96
2022-12-31T14:48:10.579Z,15.95
2022-12-31T14:53:19.418Z,15.91
2022-12-31T14:58:28.241Z,15.87
2022-12-31T15:03:37.898Z,15.80
2022-12-31T15:09:07.503Z,15.83
2022-12-31T15:14:37.794Z,15.88
2022-12-31T15:19:50.629Z,15.89
2022-12-31T15:24:52.082Z,15.89
2022-12-31T15:29:53.745Z,15.84
2022-12-31T15:35:02.725Z,15.73
2022-12-31T15:40:18.269Z,15.65
2022-12-31T15:45:26.048Z,15.61
2022-12-31T15:50:27.833Z,15.57
2022-12-31T15:55:37.411Z,15.55
2022-12-31T16:00:54.984Z,15.47
2022-12-31T16:06:01.006Z,15.39
2022-12-31T16:11:07.265Z,15.42
2022-12-31T16:16:19.473Z,15.42
2022-12-31T16:21:30.651Z,15.42
2022-12-31T16:26:47.247Z,15.37
2022-12-31T16:31:49.769Z,15.34
2022-12-31T16:36:58.869Z,15.35
2022-12-31T16:42:09.359Z,15.39
2022-12-31T16:47:15.796Z,15.46
2022-12-31T16:52:23.267Z,15.48
2022-12-31T16:57:26.698Z,15.51
2022-12-31T17:02:50.170Z,15.54
2022-12-31T17:07:51.734Z,15.55
2022-12-31T17:18:22.164Z,15.55
2022-12-31T17:23:25.530Z,15.53
2022-12-31T17:28:27.797Z,15.52
2022-12-31T17:33:30.281Z,15.54
2022-12-31T17:38:32.419Z,15.54
2022-12-31T17:43:36.633Z,15.53
2022-12-31T17:48:38.307Z,15.51
2022-12-31T17:53:39.667Z,15.47
2022-12-31T17:58:52.032Z,15.43
2022-12-31T18:03:53.403Z,15.34
2022-12-31T18:08:54.775Z,15.29
2022-12-31T18:13:56.146Z,15.25
2022-12-31T18:18:58.812Z,15.21
2022-12-31T18:29:13.027Z,15.06
2022-12-31T18:34:15.079Z,15.02
2022-12-31T18:39:16.702Z,15.00
2022-12-31T18:44:18.283Z,15.02
2022-12-31T18:49:19.698Z,15.04
2022-12-31T18:54:22.176Z,15.09
2022-12-31T18:59:24.048Z,15.09
2022-12-31T19:04:28.350Z,15.06
2022-12-31T19:09:45.033Z,15.06
2022-12-31T19:14:46.917Z,15.07
2022-12-31T19:19:48.269Z,15.08
2022-12-31T19:24:49.620Z,15.06
2022-12-31T19:29:50.972Z,15.07
2022-12-31T19:34:54.217Z,15.09
2022-12-31T19:39:55.565Z,15.13
2022-12-31T19:44:56.957Z,15.18
2022-12-31T19:49:59.258Z,15.25
2022-12-31T19:55:00.634Z,15.35
2022-12-31T20:00:02.022Z,15.43
2022-12-31T20:05:14.894Z,15.46
2022-12-31T20:10:16.297Z,15.47
2022-12-31T20:15:18.553Z,15.54
2022-12-31T20:20:21.202Z,15.57
2022-12-31T20:25:23.058Z,15.56
2022-12-31T20:30:26.087Z,15.54
2022-12-31T20:35:27.508Z,15.52
2022-12-31T20:40:29.777Z,15.44
2022-12-31T20:45:31.133Z,15.44
2022-12-31T20:50:32.482Z,15.43
2022-12-31T20:55:36.770Z,15.46
2022-12-31T21:00:38.157Z,15.49
2022-12-31T21:05:46.213Z,15.53
2022-12-31T21:10:48.637Z,15.55
2022-12-31T21:15:50.780Z,15.51
2022-12-31T21:20:52.628Z,15.44
2022-12-31T21:25:53.936Z,15.43
2022-12-31T21:30:58.886Z,15.52
2022-12-31T21:36:04.432Z,15.54
2022-12-31T21:41:07.183Z,15.57
2022-12-31T21:46:09.548Z,15.55
2022-12-31T21:51:15.092Z,15.54
2022-12-31T21:56:18.551Z,15.56
2022-12-31T22:01:39.886Z,15.59
2022-12-31T22:06:41.351Z,15.57
2022-12-31T22:11:42.721Z,15.56
2022-12-31T22:16:44.152Z,15.50
2022-12-31T22:21:45.537Z,15.47
2022-12-31T22:26:47.076Z,15.45
2022-12-31T22:31:48.437Z,15.43
2022-12-31T22:36:49.801Z,15.40
2022-12-31T22:41:51.132Z,15.38
2022-12-31T22:46:52.727Z,15.35
2022-12-31T22:51:55.696Z,15.33
2022-12-31T22:56:58.814Z,15.33
2022-12-31T23:02:00.138Z,15.28
2022-12-31T23:07:01.457Z,15.25
2022-12-31T23:12:03.454Z,15.29
2022-12-31T23:17:31.365Z,15.27
2022-12-31T23:22:51.716Z,15.28
2022-12-31T23:27:53.101Z,15.31
2022-12-31T23:32:54.439Z,15.36
2022-12-31T23:37:55.820Z,15.37
2022-12-31T23:42:57.133Z,15.42
2022-12-31T23:47:58.534Z,15.40
2022-12-31T23:53:00.901Z,15.36
2022-12-31T23:58:02.237Z,15.36
